createdAt,value
2018-09-22T00:00:51.806Z,98602.57
2018-09-22T00:03:21.185Z,98598.59
2018-09-22T00:05:50.433Z,98604.48
2018-09-22T00:08:19.905Z,98611.23
2018-09-22T00:10:49.054Z,98620.72
2018-09-22T00:13:18.193Z,98625.58
2018-09-22T00:15:47.285Z,98625.95
2018-09-22T00:18:16.382Z,98628.66
2018-09-22T00:20:45.518Z,98632.09
2018-09-22T00:23:14.658Z,98623.80
2018-09-22T00:25:43.825Z,98621.86
2018-09-22T00:28:13.559Z,98638.75
2018-09-22T00:30:42.684Z,98630.55
2018-09-22T00:33:11.831Z,98624.17
2018-09-22T00:35:40.976Z,98624.97
2018-09-22T00:38:10.160Z,98627.57
2018-09-22T00:40:39.823Z,98646.60
2018-09-22T00:43:08.986Z,98645.70
2018-09-22T00:45:38.885Z,98641.53
2018-09-22T00:48:08.042Z,98637.45
2018-09-22T00:50:37.657Z,98629.94
2018-09-22T00:53:07.205Z,98640.72
2018-09-22T00:55:36.917Z,98646.53
2018-09-22T00:58:05.923Z,98637.36
2018-09-22T01:00:35.050Z,98631.40
2018-09-22T01:03:05.000Z,98629.37
2018-09-22T01:05:34.387Z,98642.39
2018-09-22T01:08:04.300Z,98653.63
2018-09-22T01:10:33.399Z,98658.02
2018-09-22T01:13:02.553Z,98656.83
2018-09-22T01:15:31.802Z,98662.00
2018-09-22T01:18:00.893Z,98674.82
2018-09-22T01:20:30.014Z,98685.13
2018-09-22T01:22:59.159Z,98682.93
2018-09-22T01:25:28.283Z,98680.94
2018-09-22T01:27:57.691Z,98695.69
2018-09-22T01:30:26.938Z,98691.89
2018-09-22T01:32:56.054Z,98685.71
2018-09-22T01:35:25.733Z,98693.03
2018-09-22T01:37:54.862Z,98696.83
2018-09-22T01:40:24.007Z,98692.22
2018-09-22T01:42:54.309Z,98698.95
2018-09-22T01:45:23.446Z,98702.42
2018-09-22T01:47:52.596Z,98698.50
2018-09-22T01:50:21.750Z,98698.95
2018-09-22T01:52:50.892Z,98703.87
2018-09-22T01:55:20.054Z,98698.24
2018-09-22T01:57:49.182Z,98702.19
2018-09-22T02:00:18.915Z,98703.67
2018-09-22T02:02:47.663Z,98700.63
2018-09-22T02:05:16.831Z,98695.04
2018-09-22T02:07:46.011Z,98696.97
2018-09-22T02:10:15.394Z,98699.84
2018-09-22T02:12:44.578Z,98701.49
2018-09-22T02:15:14.470Z,98703.40
2018-09-22T02:17:43.582Z,98701.00
2018-09-22T02:20:12.675Z,98710.88
2018-09-22T02:22:41.793Z,98701.71
2018-09-22T02:25:11.666Z,98688.06
2018-09-22T02:27:40.824Z,98692.83
2018-09-22T02:30:09.933Z,98693.27
2018-09-22T02:35:14.337Z,98691.30
2018-09-22T02:37:43.457Z,98694.77
2018-09-22T02:40:12.558Z,98700.69
2018-09-22T02:42:41.694Z,98701.05
2018-09-22T02:45:10.982Z,98721.30
2018-09-22T02:47:40.950Z,98727.45
2018-09-22T02:50:10.062Z,98728.63
2018-09-22T02:52:39.170Z,98731.88
2018-09-22T02:55:08.303Z,98748.16
2018-09-22T02:57:37.417Z,98746.70
2018-09-22T03:00:07.208Z,98729.98
2018-09-22T03:02:36.421Z,98721.77
2018-09-22T03:05:05.954Z,98731.31
2018-09-22T03:07:35.186Z,98736.27
2018-09-22T03:10:04.489Z,98739.12
2018-09-22T03:12:34.254Z,98737.58
2018-09-22T03:15:04.238Z,98736.78
2018-09-22T03:17:33.345Z,98739.73
2018-09-22T03:20:03.327Z,98735.52
2018-09-22T03:22:33.430Z,98727.89
2018-09-22T03:25:02.547Z,98721.26
2018-09-22T03:27:31.674Z,98729.05
2018-09-22T03:30:00.808Z,98728.98
2018-09-22T03:32:29.991Z,98724.23
2018-09-22T03:34:59.185Z,98721.98
2018-09-22T03:37:28.303Z,98731.80
2018-09-22T03:39:57.419Z,98730.81
2018-09-22T03:42:26.769Z,98727.64
2018-09-22T03:44:55.914Z,98727.36
2018-09-22T03:47:25.020Z,98740.63
2018-09-22T03:49:54.147Z,98747.53
2018-09-22T03:52:23.242Z,98741.72
2018-09-22T03:54:52.337Z,98741.02
2018-09-22T03:57:21.494Z,98740.73
2018-09-22T03:59:51.310Z,98749.25
2018-09-22T04:02:20.508Z,98751.91
2018-09-22T04:04:50.202Z,98749.05
2018-09-22T04:07:20.091Z,98748.86
2018-09-22T04:09:49.366Z,98749.25
2018-09-22T04:12:19.223Z,98740.92
2018-09-22T04:14:48.317Z,98726.63
2018-09-22T04:17:17.550Z,98727.02
2018-09-22T04:19:47.291Z,98724.97
2018-09-22T04:22:16.423Z,98723.59
2018-09-22T04:24:45.593Z,98722.91
2018-09-22T04:27:14.698Z,98729.08
2018-09-22T04:29:43.802Z,98737.84
2018-09-22T04:32:13.074Z,98730.80
2018-09-22T04:34:42.445Z,98723.73
2018-09-22T04:37:11.538Z,98718.84
2018-09-22T04:39:40.723Z,98724.47
2018-09-22T04:42:09.805Z,98736.23
2018-09-22T04:44:39.046Z,98741.80
2018-09-22T04:47:08.154Z,98748.23
2018-09-22T04:49:37.257Z,98747.53
2018-09-22T04:52:06.461Z,98754.66
2018-09-22T04:54:35.554Z,98756.27
2018-09-22T04:57:04.654Z,98750.21
2018-09-22T04:59:33.802Z,98756.95
2018-09-22T05:02:03.466Z,98762.89
2018-09-22T05:04:32.962Z,98768.17
2018-09-22T05:07:02.068Z,98769.44
2018-09-22T05:09:31.642Z,98764.52
2018-09-22T05:12:00.340Z,98759.95
2018-09-22T05:14:29.455Z,98759.36
2018-09-22T05:16:58.614Z,98760.29
2018-09-22T05:22:00.163Z,98752.55
2018-09-22T05:24:30.036Z,98758.36
2018-09-22T05:26:59.281Z,98758.08
2018-09-22T05:29:28.437Z,98762.33
2018-09-22T05:31:58.777Z,98763.35
2018-09-22T05:34:28.389Z,98758.45
2018-09-22T05:36:57.502Z,98751.45
2018-09-22T05:39:26.617Z,98753.51
2018-09-22T05:41:55.751Z,98750.09
2018-09-22T05:44:24.849Z,98756.69
2018-09-22T05:46:54.718Z,98762.38
2018-09-22T05:49:23.841Z,98770.66
2018-09-22T05:51:52.962Z,98782.90
2018-09-22T05:54:22.171Z,98779.98
2018-09-22T05:56:51.346Z,98785.62
2018-09-22T05:59:20.454Z,98792.41
2018-09-22T06:01:49.554Z,98787.20
2018-09-22T06:04:18.747Z,98791.03
2018-09-22T06:06:47.731Z,98790.41
2018-09-22T06:09:16.833Z,98779.80
2018-09-22T06:11:45.946Z,98787.39
2018-09-22T06:14:15.063Z,98791.80
2018-09-22T06:16:44.198Z,98793.92
2018-09-22T06:19:13.311Z,98791.43
2018-09-22T06:21:42.430Z,98786.47
2018-09-22T06:24:11.639Z,98787.70
2018-09-22T06:26:40.978Z,98792.08
2018-09-22T06:29:10.103Z,98792.55
2018-09-22T06:31:39.207Z,98790.24
2018-09-22T06:34:08.362Z,98800.88
2018-09-22T06:36:37.477Z,98798.27
2018-09-22T06:39:09.601Z,98800.69
2018-09-22T06:41:38.710Z,98810.17
2018-09-22T06:44:07.850Z,98815.39
2018-09-22T06:46:37.053Z,98833.58
2018-09-22T06:49:06.158Z,98835.17
2018-09-22T06:51:35.273Z,98844.20
2018-09-22T06:54:04.378Z,98836.47
2018-09-22T06:56:33.534Z,98823.66
2018-09-22T06:59:03.363Z,98825.09
2018-09-22T07:01:32.498Z,98817.41
2018-09-22T07:04:01.634Z,98818.47
2018-09-22T07:06:30.821Z,98827.69
2018-09-22T07:09:00.114Z,98825.95
2018-09-22T07:11:29.370Z,98833.88
2018-09-22T07:13:58.565Z,98843.48
2018-09-22T07:16:27.679Z,98845.05
2018-09-22T07:18:56.812Z,98848.02
2018-09-22T07:21:31.167Z,98862.08
2018-09-22T07:24:00.365Z,98853.48
2018-09-22T07:26:29.982Z,98834.98
2018-09-22T07:28:59.083Z,98837.52
2018-09-22T07:31:28.207Z,98843.70
2018-09-22T07:33:57.318Z,98838.19
2018-09-22T07:36:26.418Z,98838.02
2018-09-22T07:38:55.915Z,98832.73
2018-09-22T07:41:25.090Z,98832.17
2018-09-22T07:43:54.463Z,98832.41
2018-09-22T07:46:23.590Z,98831.21
2018-09-22T07:48:52.705Z,98830.63
2018-09-22T07:51:21.916Z,98828.19
2018-09-22T07:53:51.130Z,98839.70
2018-09-22T07:56:20.233Z,98837.72
2018-09-22T07:58:49.844Z,98832.05
2018-09-22T08:01:18.975Z,98833.66
2018-09-22T08:03:48.078Z,98828.50
2018-09-22T08:06:17.182Z,98831.93
2018-09-22T08:08:46.540Z,98831.19
2018-09-22T08:11:16.271Z,98829.18
2018-09-22T08:13:45.501Z,98836.43
2018-09-22T08:16:14.638Z,98831.28
2018-09-22T08:18:43.793Z,98819.22
2018-09-22T08:21:12.907Z,98819.96
2018-09-22T08:23:42.473Z,98820.59
2018-09-22T08:26:12.329Z,98817.33
2018-09-22T08:28:41.187Z,98821.16
2018-09-22T08:31:10.622Z,98818.09
2018-09-22T08:33:39.330Z,98811.79
2018-09-22T08:36:08.561Z,98822.17
2018-09-22T08:38:37.614Z,98828.25
2018-09-22T08:41:07.240Z,98831.21
2018-09-22T08:43:36.507Z,98824.47
2018-09-22T08:46:06.198Z,98821.90
2018-09-22T08:48:35.337Z,98826.69
2018-09-22T08:51:04.946Z,98822.56
2018-09-22T08:53:34.242Z,98814.16
2018-09-22T08:56:04.031Z,98832.47
2018-09-22T08:58:33.510Z,98830.27
2018-09-22T09:01:02.766Z,98831.02
2018-09-22T09:03:32.102Z,98832.42
2018-09-22T09:06:01.236Z,98832.88
2018-09-22T09:08:30.811Z,98839.94
2018-09-22T09:10:59.971Z,98831.77
2018-09-22T09:13:29.199Z,98834.03
2018-09-22T09:15:58.370Z,98828.06
2018-09-22T09:18:28.294Z,98829.05
2018-09-22T09:20:58.200Z,98824.02
2018-09-22T09:23:27.354Z,98821.83
2018-09-22T09:25:56.500Z,98823.75
2018-09-22T09:28:26.272Z,98824.02
2018-09-22T09:30:56.153Z,98818.90
2018-09-22T09:33:25.291Z,98825.88
2018-09-22T09:35:54.406Z,98837.78
2018-09-22T09:38:23.581Z,98830.42
2018-09-22T09:40:52.511Z,98829.23
2018-09-22T09:43:21.680Z,98828.17
2018-09-22T09:45:50.799Z,98819.26
2018-09-22T09:48:19.967Z,98811.82
2018-09-22T09:50:49.085Z,98822.97
2018-09-22T09:53:18.265Z,98823.95
2018-09-22T09:55:48.107Z,98814.02
2018-09-22T09:58:17.437Z,98809.53
2018-09-22T10:00:47.200Z,98802.86
2018-09-22T10:03:17.638Z,98790.42
2018-09-22T10:05:47.285Z,98782.59
2018-09-22T10:08:16.977Z,98784.39
2018-09-22T10:10:47.098Z,98780.63
2018-09-22T10:13:16.318Z,98769.55
2018-09-22T10:15:45.621Z,98758.25
2018-09-22T10:18:14.878Z,98758.96
2018-09-22T10:20:44.062Z,98758.34
2018-09-22T10:23:13.224Z,98743.94
2018-09-22T10:25:42.382Z,98748.88
2018-09-22T10:28:11.592Z,98756.10
2018-09-22T10:30:40.706Z,98754.47
2018-09-22T10:33:09.950Z,98751.78
2018-09-22T10:35:39.087Z,98748.70
2018-09-22T10:38:08.262Z,98741.91
2018-09-22T10:40:37.488Z,98732.29
2018-09-22T10:43:06.617Z,98729.70
2018-09-22T10:45:35.798Z,98731.88
2018-09-22T10:48:05.502Z,98737.72
2018-09-22T10:50:34.673Z,98737.91
2018-09-22T10:53:03.845Z,98735.41
2018-09-22T10:55:32.993Z,98721.72
2018-09-22T10:58:02.145Z,98711.52
2018-09-22T11:00:31.286Z,98713.43
2018-09-22T11:03:00.443Z,98710.73
2018-09-22T11:05:29.578Z,98712.88
2018-09-22T11:07:58.734Z,98714.81
2018-09-22T11:10:27.857Z,98711.67
2018-09-22T11:12:57.170Z,98714.56
2018-09-22T11:15:26.370Z,98719.58
2018-09-22T11:17:55.570Z,98723.92
2018-09-22T11:20:24.721Z,98727.96
2018-09-22T11:22:53.865Z,98719.47
2018-09-22T11:25:23.651Z,98722.91
2018-09-22T11:27:52.784Z,98708.16
2018-09-22T11:30:21.950Z,98696.81
2018-09-22T11:32:51.085Z,98692.58
2018-09-22T11:35:20.746Z,98688.52
2018-09-22T11:37:49.965Z,98683.69
2018-09-22T11:40:19.113Z,98686.71
2018-09-22T11:42:48.242Z,98672.10
2018-09-22T11:45:17.477Z,98648.88
2018-09-22T11:47:47.255Z,98657.23
2018-09-22T11:50:16.485Z,98638.23
2018-09-22T11:52:45.713Z,98625.72
2018-09-22T11:55:14.971Z,98631.70
2018-09-22T11:57:44.200Z,98626.28
2018-09-22T12:00:13.549Z,98623.32
2018-09-22T12:02:42.760Z,98626.23
2018-09-22T12:05:12.399Z,98615.20
2018-09-22T12:07:41.562Z,98614.84
2018-09-22T12:10:10.686Z,98608.20
2018-09-22T12:12:39.797Z,98612.40
2018-09-22T12:15:08.956Z,98617.02
2018-09-22T12:17:38.317Z,98622.55
2018-09-22T12:20:07.437Z,98633.12
2018-09-22T12:22:36.574Z,98626.50
2018-09-22T12:25:05.745Z,98637.41
2018-09-22T12:27:34.950Z,98626.67
2018-09-22T12:30:04.142Z,98627.62
2018-09-22T12:32:33.341Z,98621.48
2018-09-22T12:35:03.310Z,98611.27
2018-09-22T12:37:32.637Z,98619.69
2018-09-22T12:40:01.770Z,98614.05
2018-09-22T12:42:30.924Z,98602.53
2018-09-22T12:45:00.073Z,98604.14
2018-09-22T12:47:29.274Z,98596.45
2018-09-22T12:49:58.414Z,98594.25
2018-09-22T12:52:28.145Z,98588.14
2018-09-22T12:54:57.353Z,98580.80
2018-09-22T12:57:26.502Z,98584.05
2018-09-22T12:59:55.642Z,98564.33
2018-09-22T13:02:24.811Z,98575.26
2018-09-22T13:04:53.954Z,98569.14
2018-09-22T13:07:23.098Z,98576.42
2018-09-22T13:09:52.245Z,98566.58
2018-09-22T13:12:21.378Z,98544.15
2018-09-22T13:14:50.498Z,98533.64
2018-09-22T13:17:19.698Z,98521.57
2018-09-22T13:19:49.169Z,98532.72
2018-09-22T13:22:18.325Z,98527.28
2018-09-22T13:24:47.581Z,98516.53
2018-09-22T13:27:16.721Z,98512.88
2018-09-22T13:29:45.867Z,98516.66
2018-09-22T13:32:15.005Z,98517.92
2018-09-22T13:34:44.446Z,98499.30
2018-09-22T13:37:13.674Z,98512.87
2018-09-22T13:39:43.374Z,98521.78
2018-09-22T13:42:12.681Z,98531.58
2018-09-22T13:44:41.578Z,98538.28
2018-09-22T13:47:10.736Z,98533.88
2018-09-22T13:49:39.938Z,98533.41
2018-09-22T13:52:09.354Z,98522.13
2018-09-22T13:54:38.483Z,98515.24
2018-09-22T13:57:07.654Z,98527.38
2018-09-22T13:59:36.918Z,98523.89
2018-09-22T14:02:06.045Z,98507.56
2018-09-22T14:04:35.594Z,98506.28
2018-09-22T14:07:04.793Z,98516.20
2018-09-22T14:09:33.974Z,98510.88
2018-09-22T14:12:03.118Z,98506.87
2018-09-22T14:14:32.250Z,98505.17
2018-09-22T14:17:01.370Z,98498.13
2018-09-22T14:19:30.497Z,98494.30
2018-09-22T14:21:59.613Z,98499.82
2018-09-22T14:24:29.941Z,98502.50
2018-09-22T14:27:00.068Z,98509.45
2018-09-22T14:29:29.178Z,98522.83
2018-09-22T14:31:58.271Z,98531.19
2018-09-22T14:34:28.144Z,98533.44
2018-09-22T14:36:57.261Z,98519.05
2018-09-22T14:39:27.030Z,98504.73
2018-09-22T14:41:56.273Z,98494.79
2018-09-22T14:44:25.570Z,98477.76
2018-09-22T14:46:55.146Z,98474.20
2018-09-22T14:49:24.374Z,98469.87
2018-09-22T14:51:53.530Z,98463.54
2018-09-22T14:54:22.737Z,98463.57
2018-09-22T14:56:51.876Z,98458.78
2018-09-22T14:59:21.066Z,98458.36
2018-09-22T15:01:50.327Z,98468.91
2018-09-22T15:04:19.466Z,98475.97
2018-09-22T15:06:48.626Z,98480.96
2018-09-22T15:09:17.782Z,98477.48
2018-09-22T15:11:46.953Z,98472.66
2018-09-22T15:14:16.098Z,98475.41
2018-09-22T15:16:45.226Z,98474.16
2018-09-22T15:19:14.382Z,98472.27
2018-09-22T15:21:43.502Z,98454.53
2018-09-22T15:24:12.682Z,98449.97
2018-09-22T15:26:42.303Z,98452.67
2018-09-22T15:29:11.458Z,98447.63
2018-09-22T15:31:40.600Z,98432.37
2018-09-22T15:34:09.732Z,98433.48
2018-09-22T15:36:39.344Z,98430.87
2018-09-22T15:39:09.278Z,98436.73
2018-09-22T15:41:38.636Z,98439.49
2018-09-22T15:44:08.130Z,98444.30
2018-09-22T15:46:37.458Z,98450.35
2018-09-22T15:49:06.754Z,98459.10
2018-09-22T15:51:36.122Z,98452.83
2018-09-22T15:54:05.775Z,98447.81
2018-09-22T15:56:35.130Z,98430.48
2018-09-22T15:59:04.298Z,98432.86
2018-09-22T16:01:33.522Z,98429.05
2018-09-22T16:04:02.628Z,98433.59
2018-09-22T16:06:31.835Z,98430.02
2018-09-22T16:09:01.103Z,98434.66
2018-09-22T16:11:30.191Z,98430.89
2018-09-22T16:13:59.393Z,98417.57
2018-09-22T16:16:28.524Z,98418.67
2018-09-22T16:18:57.698Z,98412.03
2018-09-22T16:21:26.875Z,98412.03
2018-09-22T16:23:56.000Z,98413.94
2018-09-22T16:26:25.134Z,98407.69
2018-09-22T16:28:54.342Z,98414.28
2018-09-22T16:31:23.466Z,98411.17
2018-09-22T16:33:52.630Z,98401.73
2018-09-22T16:36:21.889Z,98411.50
2018-09-22T16:38:51.192Z,98419.12
2018-09-22T16:41:21.042Z,98431.49
2018-09-22T16:43:50.349Z,98435.95
2018-09-22T16:46:20.034Z,98434.67
2018-09-22T16:48:49.852Z,98428.31
2018-09-22T16:51:18.632Z,98423.34
2018-09-22T16:53:47.797Z,98425.66
2018-09-22T16:56:16.977Z,98421.94
2018-09-22T16:58:46.135Z,98418.39
2018-09-22T17:01:15.282Z,98426.10
2018-09-22T17:03:44.511Z,98413.39
2018-09-22T17:06:13.634Z,98411.32
2018-09-22T17:08:43.103Z,98412.91
2018-09-22T17:11:13.647Z,98429.23
2018-09-22T17:13:42.777Z,98434.69
2018-09-22T17:16:11.965Z,98434.34
2018-09-22T17:18:41.125Z,98445.61
2018-09-22T17:21:10.345Z,98443.82
2018-09-22T17:23:39.526Z,98451.34
2018-09-22T17:26:08.741Z,98457.27
2018-09-22T17:28:37.914Z,98456.21
2018-09-22T17:31:07.023Z,98446.41
2018-09-22T17:33:36.185Z,98441.06
2018-09-22T17:36:06.454Z,98436.05
2018-09-22T17:38:35.350Z,98431.69
2018-09-22T17:41:04.501Z,98435.89
2018-09-22T17:43:33.656Z,98443.59
2018-09-22T17:46:02.789Z,98437.45
2018-09-22T17:48:31.962Z,98442.85
2018-09-22T17:51:01.078Z,98437.87
2018-09-22T17:53:30.210Z,98447.98
2018-09-22T17:55:59.353Z,98461.41
2018-09-22T17:58:28.523Z,98473.23
2018-09-22T18:00:57.658Z,98476.22
2018-09-22T18:03:26.865Z,98478.20
2018-09-22T18:05:56.020Z,98477.92
2018-09-22T18:08:25.194Z,98469.27
2018-09-22T18:10:55.070Z,98458.80
2018-09-22T18:13:24.266Z,98459.95
2018-09-22T18:15:53.509Z,98453.73
2018-09-22T18:18:22.682Z,98448.13
2018-09-22T18:20:51.897Z,98445.50
2018-09-22T18:23:21.057Z,98438.63
2018-09-22T18:25:50.191Z,98448.06
2018-09-22T18:28:19.346Z,98453.61
2018-09-22T18:30:48.514Z,98457.72
2018-09-22T18:33:17.637Z,98458.12
2018-09-22T18:35:46.779Z,98468.91
2018-09-22T18:38:16.154Z,98475.16
2018-09-22T18:40:45.548Z,98468.39
2018-09-22T18:43:14.682Z,98454.80
2018-09-22T18:45:43.834Z,98460.49
2018-09-22T18:48:13.850Z,98468.01
2018-09-22T18:50:43.030Z,98462.98
2018-09-22T18:53:12.853Z,98461.80
2018-09-22T18:55:41.981Z,98460.03
2018-09-22T18:58:11.113Z,98459.95
2018-09-22T19:00:40.250Z,98461.31
2018-09-22T19:03:09.354Z,98471.54
2018-09-22T19:05:38.523Z,98475.54
2018-09-22T19:08:07.691Z,98468.56
2018-09-22T19:10:37.277Z,98470.14
2018-09-22T19:13:07.707Z,98469.64
2018-09-22T19:15:41.538Z,98471.48
2018-09-22T19:18:49.474Z,98464.81
2018-09-22T19:21:28.378Z,98458.02
2018-09-22T19:24:00.329Z,98459.38
2018-09-22T19:26:34.186Z,98462.22
2018-09-22T19:29:09.486Z,98467.33
2018-09-22T19:31:43.233Z,98479.13
2018-09-22T19:34:20.385Z,98464.60
2018-09-22T19:36:56.066Z,98462.14
2018-09-22T19:40:34.197Z,98457.31
2018-09-22T19:43:08.512Z,98450.16
2018-09-22T19:45:42.637Z,98460.61
2018-09-22T19:48:15.343Z,98463.74
2018-09-22T19:50:47.776Z,98462.82
2018-09-22T19:53:16.917Z,98473.45
2018-09-22T19:55:46.093Z,98479.09
2018-09-22T19:58:15.693Z,98477.78
2018-09-22T20:00:45.591Z,98482.92
2018-09-22T20:03:15.523Z,98471.31
2018-09-22T20:05:44.237Z,98473.58
2018-09-22T20:08:13.358Z,98471.73
2018-09-22T20:10:42.625Z,98465.86
2018-09-22T20:13:11.809Z,98469.91
2018-09-22T20:15:40.970Z,98464.66
2018-09-22T20:18:10.958Z,98459.16
2018-09-22T20:20:40.766Z,98449.91
2018-09-22T20:23:10.890Z,98459.45
2018-09-22T20:25:41.021Z,98462.68
2018-09-22T20:28:10.561Z,98464.62
2018-09-22T20:30:40.317Z,98466.58
2018-09-22T20:33:09.805Z,98454.36
2018-09-22T20:35:38.907Z,98456.84
2018-09-22T20:38:08.596Z,98465.48
2018-09-22T20:40:38.033Z,98459.09
2018-09-22T20:43:07.549Z,98458.09
2018-09-22T20:45:37.575Z,98452.20
2018-09-22T20:48:07.446Z,98456.89
2018-09-22T20:50:36.775Z,98462.35
2018-09-22T20:53:06.550Z,98462.84
2018-09-22T20:55:36.434Z,98464.90
2018-09-22T20:58:05.853Z,98460.67
2018-09-22T21:00:35.029Z,98458.09
2018-09-22T21:03:04.267Z,98454.86
2018-09-22T21:05:33.437Z,98470.78
2018-09-22T21:08:03.393Z,98471.52
2018-09-22T21:10:33.857Z,98476.20
2018-09-22T21:13:03.089Z,98475.96
2018-09-22T21:15:33.168Z,98469.17
2018-09-22T21:18:02.459Z,98457.56
2018-09-22T21:20:32.275Z,98459.72
2018-09-22T21:23:01.555Z,98459.89
2018-09-22T21:25:31.770Z,98463.50
2018-09-22T21:28:01.049Z,98463.84
2018-09-22T21:30:31.154Z,98462.94
2018-09-22T21:33:00.942Z,98455.72
2018-09-22T21:35:30.894Z,98458.30
2018-09-22T21:38:00.142Z,98444.78
2018-09-22T21:40:29.686Z,98443.64
2018-09-22T21:42:59.017Z,98438.59
2018-09-22T21:45:28.935Z,98440.63
2018-09-22T21:47:58.252Z,98447.99
2018-09-22T21:50:27.617Z,98455.39
2018-09-22T21:52:56.807Z,98449.56
2018-09-22T21:55:26.087Z,98452.17
2018-09-22T21:57:56.029Z,98450.44
2018-09-22T22:00:25.170Z,98461.91
2018-09-22T22:02:54.945Z,98453.91
2018-09-22T22:05:24.085Z,98456.30
2018-09-22T22:07:53.210Z,98458.93
2018-09-22T22:10:22.341Z,98461.27
2018-09-22T22:12:51.583Z,98473.26
2018-09-22T22:15:20.801Z,98477.09
2018-09-22T22:17:50.046Z,98480.73
2018-09-22T22:20:19.489Z,98479.69
2018-09-22T22:22:48.793Z,98478.84
2018-09-22T22:25:18.180Z,98474.28
2018-09-22T22:27:47.479Z,98467.89
2018-09-22T22:30:17.535Z,98462.95
2018-09-22T22:32:47.329Z,98455.89
2018-09-22T22:35:17.380Z,98472.62
2018-09-22T22:37:47.322Z,98468.19
2018-09-22T22:40:16.586Z,98461.79
2018-09-22T22:42:45.858Z,98455.83
2018-09-22T22:45:15.329Z,98452.59
2018-09-22T22:47:44.582Z,98461.16
2018-09-22T22:50:13.861Z,98467.05
2018-09-22T22:52:44.303Z,98466.45
2018-09-22T22:55:13.870Z,98464.60
2018-09-22T22:57:43.013Z,98460.05
2018-09-22T23:00:12.293Z,98450.73
2018-09-22T23:02:41.417Z,98456.27
2018-09-22T23:05:10.558Z,98469.16
2018-09-22T23:07:39.267Z,98472.51
2018-09-22T23:10:08.456Z,98476.92
2018-09-22T23:12:37.578Z,98479.48
2018-09-22T23:15:07.487Z,98467.08
2018-09-22T23:17:36.597Z,98456.06
2018-09-22T23:20:05.721Z,98447.22
2018-09-22T23:22:34.866Z,98444.95
2018-09-22T23:25:04.045Z,98448.67
2018-09-22T23:27:33.216Z,98437.27
2018-09-22T23:30:02.320Z,98432.52
2018-09-22T23:32:31.430Z,98439.80
2018-09-22T23:35:00.625Z,98442.05
2018-09-22T23:37:29.742Z,98441.55
2018-09-22T23:39:59.425Z,98444.20
2018-09-22T23:42:28.565Z,98439.37
2018-09-22T23:44:58.239Z,98439.44
2018-09-22T23:47:27.365Z,98434.72
2018-09-22T23:49:56.478Z,98436.16
2018-09-22T23:52:25.750Z,98427.94
2018-09-22T23:54:54.873Z,98423.87
2018-09-22T23:57:25.046Z,98419.83
2018-09-22T23:59:54.195Z,98426.34
